Guadarrama, Spain
Current Conditions -  °F | °C
As of 5:00 PM on Thursday 23 Oct 2014 (Local Time) from LECV Reporting Station
Few Clouds Few Clouds  
Wind Chill: 73°   Ceiling: Unl
Heat Index: 73°   Visibility: 6mi
Dew Point: 41°   Wind: 12mph
Humidity: 31%   Direction: 10°N
Pressure: 30.24"   Gusts: NA
Location:  40.67°N, 4.09°W
Report Text: LECV 231500Z 01010KT 330V060 9999 FEW080 23/05 Q1024
Loading
Personal Weather Stations






























Interactive Weather Map
Tropical Storm Tracking
New forecast layout! Learn more

10-Day Weather Forecast

Advertisements
Track Severe Weather on mobile